Sturgeon Bay, WI

9:14 PM CDT on October 22, 2019 (GMT -0500)
Redwood | | Change Station

Elev 676 ft 44.83 °N, 87.39 °W | Updated 13 seconds ago

Overcast
Overcast
44.4 °F
Feels Like 41 °F
N
5.6
Wind Variable Wind from NW
Gusts 17.4 mph

Today
High -- | Low -- °F
--% Chance of Precip.
Yesterday
High -- | Low -- °F
Precip. -- in
Pressure 29.53 in
Visibility 10.0 miles
Clouds Mostly Cloudy 2100 ft
Overcast 3100 ft
Windchill 41 °F
Dew Point 44 °F
Humidity 99%
Rainfall 0.01 in
Snow Depth Not available.
7:13 AM 5:53 PM
Waning Crescent, 33% visible
METAR KSUE 230156Z AUTO 24017G22KT 10SM BKN021 OVC031 07/03 A2952 RMK AO2 SLP998 T00670033 $
Pressure 29.53 in
Visibility 10.0 miles
Clouds Mostly Cloudy 2100 ft
Overcast 3100 ft
Windchill 41 °F
Dew Point 44 °F
Humidity 99%
Rainfall 0.01 in
Snow Depth Not available.
7:13 AM 5:53 PM
Waning Crescent, 33% visible
METAR KSUE 230156Z AUTO 24017G22KT 10SM BKN021 OVC031 07/03 A2952 RMK AO2 SLP998 T00670033 $

Get Severe Weather Alerts

Thanks for signing up!

Be on the lookout for a verification email in your inbox.

You'll start receiving the daily forecast at 6 AM.

×

10-Day Weather Forecast

Almanac

Astronomy

Oct. 22, 2019 Rise Set
Actual Time
Civil Twilight
Nautical Twilight
Astronomical Twilight
Moon
Length of Visible Light
Length of Day
Tomorrow will be .
, % of the Moon is Illuminated

Today's Extremes

State Highs State Lows

Community

WunderPhotos

Category 6

Welcome to Category 6. This is the collective home for Weather Underground's featured writeups by Dr. Jeff Masters (right), Bob Henson (left), Chris Burt, and other regular contributors.

Nearby

Air Quality

  Air Quality AQ Index Pollutant
Not available.

Snow Depth

Station Depth Elevation

Earthquake Activity

City Distance Mag. Time & Date
Minimum magnitude displayed is 2.5.

Coastal Water Temperatures

Place Temperature

Stations

Nearby Weather Stations

Station Location Temp. Windchill Dew Point Humidity Wind Precip. Elev Updated Type
                   

Watches & Warnings

There are currently no watches in effect.